PWSweather.com
Personal Weather Stations
Station Observations
WD4JKH
Forsyth, GA 31029

Forsyth, GA 31029

Lat: 33.033225, Lon: -83.927995

Elevation: 709

Station Type: Davis Vantage VUE

High Low Average
Temperature 63.2°F17.3°C 44.1°F6.7°C 51.9°F11.1°C
Dew Point 43.1°F6.2°C 39.5°F4.2°C 41.0°F5.0°C
Winds 5.5 mph 8.9 kmh Calm Calm 2.0 mph W3.2 kmh W
Wind Gusts 13.0 mph20.9 kmh 2.0 mph3.2 kmh 7.0 mph11.3 kmh
Humidity 85% 44% 68%
Pressure 29.99 in1015.6 mb 29.82 in1009.8 mb -
Precipitation 0.06 in1.5 mm - -
Hour Temp Dew Point Humidity Winds Wind Gusts Pressure Precip Precip Rate Daily Precip Total
12:01 AM 50.4°F10.2°C 40.7°F4.8°C 69% 1.4 mph W2.3 kmh W 7.0 mph11.3 kmh 29.83 in1010.2 mb 0.00 in0.0 mm 0.00 in0.0 mm 0.06 in1.5 mm
12:06 AM 50.2°F10.1°C 40.5°F4.7°C 69% 2.2 mph W3.5 kmh W 7.0 mph11.3 kmh 29.83 in1010.2 mb 0.00 in0.0 mm 0.00 in0.0 mm 0.00 in0.0 mm
12:11 AM 50.0°F10.0°C 40.7°F4.8°C 70% 1.4 mph W2.3 kmh W 6.0 mph9.7 kmh 29.83 in1010.2 mb 0.00 in0.0 mm 0.00 in0.0 mm 0.00 in0.0 mm
12:16 AM 49.8°F9.9°C 40.5°F4.7°C 70% 1.8 mph W2.9 kmh W 6.0 mph9.7 kmh 29.83 in1010.2 mb 0.00 in0.0 mm 0.00 in0.0 mm 0.00 in0.0 mm
12:21 AM 49.6°F9.8°C 40.7°F4.8°C 71% 1.7 mph WSW2.7 kmh WSW 6.0 mph9.7 kmh 29.83 in1010.2 mb 0.00 in0.0 mm 0.00 in0.0 mm 0.00 in0.0 mm
12:26 AM 49.3°F9.6°C 40.7°F4.8°C 72% 1.3 mph WSW2.1 kmh WSW 5.0 mph8.0 kmh 29.83 in1010.2 mb 0.00 in0.0 mm 0.00 in0.0 mm 0.00 in0.0 mm
12:31 AM 49.0°F9.4°C 40.5°F4.7°C 72% 1.7 mph W2.7 kmh W 5.0 mph8.0 kmh 29.83 in1010.2 mb 0.00 in0.0 mm 0.00 in0.0 mm 0.00 in0.0 mm
12:36 AM 48.7°F9.3°C 40.4°F4.7°C 73% 1.7 mph W2.7 kmh W 5.0 mph8.0 kmh 29.84 in1010.5 mb 0.00 in0.0 mm 0.00 in0.0 mm 0.00 in0.0 mm
12:41 AM 48.5°F9.2°C 40.7°F4.8°C 74% 1.8 mph W2.9 kmh W 4.0 mph6.4 kmh 29.83 in1010.2 mb 0.00 in0.0 mm 0.00 in0.0 mm 0.00 in0.0 mm
12:46 AM 48.4°F9.1°C 40.6°F4.8°C 74% 1.2 mph W1.9 kmh W 4.0 mph6.4 kmh 29.83 in1010.2 mb 0.00 in0.0 mm 0.00 in0.0 mm 0.00 in0.0 mm
12:51 AM 48.2°F9.0°C 40.3°F4.6°C 74% 1.5 mph W2.4 kmh W 4.0 mph6.4 kmh 29.83 in1010.2 mb 0.00 in0.0 mm 0.00 in0.0 mm 0.00 in0.0 mm
12:56 AM 48.1°F8.9°C 40.3°F4.6°C 74% 1.6 mph W2.6 kmh W 4.0 mph6.4 kmh 29.83 in1010.2 mb 0.00 in0.0 mm 0.00 in0.0 mm 0.00 in0.0 mm
01:01 AM 48.0°F8.9°C 40.2°F4.6°C 74% 1.3 mph W2.1 kmh W 4.0 mph6.4 kmh 29.82 in1009.8 mb 0.00 in0.0 mm 0.00 in0.0 mm 0.00 in0.0 mm
01:06 AM 47.9°F8.8°C 40.4°F4.7°C 75% 1.0 mph W1.6 kmh W 4.0 mph6.4 kmh 29.82 in1009.8 mb 0.00 in0.0 mm 0.00 in0.0 mm 0.00 in0.0 mm
01:11 AM 47.8°F8.8°C 40.3°F4.6°C 75% 1.4 mph W2.3 kmh W 4.0 mph6.4 kmh 29.83 in1010.2 mb 0.00 in0.0 mm 0.00 in0.0 mm 0.00 in0.0 mm
01:16 AM 47.8°F8.8°C 40.3°F4.6°C 75% 1.8 mph W2.9 kmh W 4.0 mph6.4 kmh 29.83 in1010.2 mb 0.00 in0.0 mm 0.00 in0.0 mm 0.00 in0.0 mm
01:21 AM 47.9°F8.8°C 40.4°F4.7°C 75% 1.9 mph W3.1 kmh W 5.0 mph8.0 kmh 29.83 in1010.2 mb 0.00 in0.0 mm 0.00 in0.0 mm 0.00 in0.0 mm
01:26 AM 47.7°F8.7°C 40.2°F4.6°C 75% 1.6 mph WSW2.6 kmh WSW 5.0 mph8.0 kmh 29.82 in1009.8 mb 0.00 in0.0 mm 0.00 in0.0 mm 0.00 in0.0 mm
01:31 AM 47.7°F8.7°C 40.6°F4.8°C 76% 1.6 mph W2.6 kmh W 5.0 mph8.0 kmh 29.82 in1009.8 mb 0.00 in0.0 mm 0.00 in0.0 mm 0.00 in0.0 mm
01:36 AM 47.7°F8.7°C 40.5°F4.7°C 76% 3.2 mph WNW5.1 kmh WNW 7.0 mph11.3 kmh 29.83 in1010.2 mb 0.00 in0.0 mm 0.00 in0.0 mm 0.00 in0.0 mm
01:41 AM 47.7°F8.7°C 40.2°F4.6°C 75% 2.4 mph W3.9 kmh W 7.0 mph11.3 kmh 29.82 in1009.8 mb 0.00 in0.0 mm 0.00 in0.0 mm 0.00 in0.0 mm
01:46 AM 47.6°F8.7°C 40.5°F4.7°C 76% 1.9 mph W3.1 kmh W 7.0 mph11.3 kmh 29.82 in1009.8 mb 0.00 in0.0 mm 0.00 in0.0 mm 0.00 in0.0 mm
01:51 AM 47.5°F8.6°C 40.4°F4.7°C 76% 2.5 mph W4.0 kmh W 7.0 mph11.3 kmh 29.83 in1010.2 mb 0.00 in0.0 mm 0.00 in0.0 mm 0.00 in0.0 mm
01:56 AM 47.4°F8.6°C 40.3°F4.6°C 76% 2.3 mph WSW3.7 kmh WSW 7.0 mph11.3 kmh 29.83 in1010.2 mb 0.00 in0.0 mm 0.00 in0.0 mm 0.00 in0.0 mm
02:01 AM 47.3°F8.5°C 40.1°F4.5°C 76% 1.8 mph WSW2.9 kmh WSW 7.0 mph11.3 kmh 29.83 in1010.2 mb 0.00 in0.0 mm 0.00 in0.0 mm 0.00 in0.0 mm
02:06 AM 47.2°F8.4°C 40.4°F4.7°C 77% 1.9 mph WSW3.1 kmh WSW 7.0 mph11.3 kmh 29.83 in1010.2 mb 0.00 in0.0 mm 0.00 in0.0 mm 0.00 in0.0 mm
02:11 AM 47.1°F8.4°C 40.3°F4.6°C 77% 1.4 mph W2.3 kmh W 5.0 mph8.0 kmh 29.83 in1010.2 mb 0.00 in0.0 mm 0.00 in0.0 mm 0.00 in0.0 mm
02:16 AM 47.0°F8.3°C 40.2°F4.6°C 77% 1.9 mph W3.1 kmh W 4.0 mph6.4 kmh 29.83 in1010.2 mb 0.00 in0.0 mm 0.00 in0.0 mm 0.00 in0.0 mm
02:21 AM 46.9°F8.3°C 40.1°F4.5°C 77% 1.3 mph WSW2.1 kmh WSW 4.0 mph6.4 kmh 29.83 in1010.2 mb 0.00 in0.0 mm 0.00 in0.0 mm 0.00 in0.0 mm
02:26 AM 46.7°F8.2°C 40.2°F4.6°C 78% 1.4 mph W2.3 kmh W 4.0 mph6.4 kmh 29.83 in1010.2 mb 0.00 in0.0 mm 0.00 in0.0 mm 0.00 in0.0 mm
02:31 AM 46.5°F8.1°C 40.0°F4.4°C 78% 1.4 mph WSW2.3 kmh WSW 4.0 mph6.4 kmh 29.82 in1009.8 mb 0.00 in0.0 mm 0.00 in0.0 mm 0.00 in0.0 mm
02:36 AM 46.4°F8.0°C 40.0°F4.4°C 78% 1.0 mph WSW1.6 kmh WSW 3.0 mph4.8 kmh 29.82 in1009.8 mb 0.00 in0.0 mm 0.00 in0.0 mm 0.00 in0.0 mm
02:41 AM 46.2°F7.9°C 40.1°F4.5°C 79% 1.4 mph W2.3 kmh W 3.0 mph4.8 kmh 29.83 in1010.2 mb 0.00 in0.0 mm 0.00 in0.0 mm 0.00 in0.0 mm
02:46 AM 46.1°F7.8°C 40.0°F4.4°C 79% 1.2 mph W1.9 kmh W 4.0 mph6.4 kmh 29.83 in1010.2 mb 0.00 in0.0 mm 0.00 in0.0 mm 0.00 in0.0 mm
02:50 AM 46.1°F7.8°C 40.3°F4.6°C 80% 1.4 mph W2.3 kmh W 4.0 mph6.4 kmh 29.83 in1010.2 mb 0.00 in0.0 mm 0.00 in0.0 mm 0.00 in0.0 mm
02:55 AM 46.1°F7.8°C 40.3°F4.6°C 80% 1.6 mph W2.6 kmh W 4.0 mph6.4 kmh 29.83 in1010.2 mb 0.00 in0.0 mm 0.00 in0.0 mm 0.00 in0.0 mm
03:00 AM 46.2°F7.9°C 40.1°F4.5°C 79% 1.3 mph W2.1 kmh W 6.0 mph9.7 kmh 29.83 in1010.2 mb 0.00 in0.0 mm 0.00 in0.0 mm 0.00 in0.0 mm
03:05 AM 46.3°F7.9°C 40.2°F4.6°C 79% 2.0 mph W3.2 kmh W 6.0 mph9.7 kmh 29.83 in1010.2 mb 0.00 in0.0 mm 0.00 in0.0 mm 0.00 in0.0 mm
03:10 AM 46.3°F7.9°C 40.1°F4.5°C 79% 1.8 mph W2.9 kmh W 7.0 mph11.3 kmh 29.83 in1010.2 mb 0.00 in0.0 mm 0.00 in0.0 mm 0.00 in0.0 mm
03:15 AM 46.3°F7.9°C 40.2°F4.6°C 79% 2.1 mph W3.4 kmh W 7.0 mph11.3 kmh 29.83 in1010.2 mb 0.00 in0.0 mm 0.00 in0.0 mm 0.00 in0.0 mm
03:20 AM 46.3°F7.9°C 40.2°F4.6°C 79% 3.5 mph W5.6 kmh W 7.0 mph11.3 kmh 29.83 in1010.2 mb 0.00 in0.0 mm 0.00 in0.0 mm 0.00 in0.0 mm
03:25 AM 46.3°F7.9°C 40.5°F4.7°C 80% 2.8 mph W4.5 kmh W 7.0 mph11.3 kmh 29.83 in1010.2 mb 0.00 in0.0 mm 0.00 in0.0 mm 0.00 in0.0 mm
03:30 AM 46.3°F7.9°C 40.5°F4.7°C 80% 3.2 mph W5.1 kmh W 8.0 mph12.9 kmh 29.83 in1010.2 mb 0.00 in0.0 mm 0.00 in0.0 mm 0.00 in0.0 mm
03:35 AM 46.3°F7.9°C 40.1°F4.5°C 79% 2.8 mph WNW4.5 kmh WNW 8.0 mph12.9 kmh 29.84 in1010.5 mb 0.00 in0.0 mm 0.00 in0.0 mm 0.00 in0.0 mm
03:40 AM 46.4°F8.0°C 40.3°F4.6°C 79% 3.2 mph WNW5.1 kmh WNW 9.0 mph14.5 kmh 29.84 in1010.5 mb 0.00 in0.0 mm 0.00 in0.0 mm 0.00 in0.0 mm
03:45 AM 46.4°F8.0°C 40.3°F4.6°C 79% 3.3 mph W5.3 kmh W 10.0 mph16.1 kmh 29.85 in1010.8 mb 0.00 in0.0 mm 0.00 in0.0 mm 0.00 in0.0 mm
03:50 AM 46.4°F8.0°C 40.2°F4.6°C 79% 3.1 mph WNW5.0 kmh WNW 10.0 mph16.1 kmh 29.85 in1010.8 mb 0.00 in0.0 mm 0.00 in0.0 mm 0.00 in0.0 mm
03:55 AM 46.4°F8.0°C 40.3°F4.6°C 79% 4.6 mph WNW7.4 kmh WNW 10.0 mph16.1 kmh 29.85 in1010.8 mb 0.00 in0.0 mm 0.00 in0.0 mm 0.00 in0.0 mm
04:00 AM 46.4°F8.0°C 40.3°F4.6°C 79% 3.1 mph WNW5.0 kmh WNW 10.0 mph16.1 kmh 29.85 in1010.8 mb 0.00 in0.0 mm 0.00 in0.0 mm 0.00 in0.0 mm
04:05 AM 46.5°F8.1°C 40.4°F4.7°C 79% 3.9 mph WNW6.3 kmh WNW 8.0 mph12.9 kmh 29.85 in1010.8 mb 0.00 in0.0 mm 0.00 in0.0 mm 0.00 in0.0 mm
04:10 AM 46.5°F8.1°C 40.4°F4.7°C 79% 3.1 mph W5.0 kmh W 8.0 mph12.9 kmh 29.85 in1010.8 mb 0.00 in0.0 mm 0.00 in0.0 mm 0.00 in0.0 mm
04:15 AM 46.5°F8.1°C 40.4°F4.7°C 79% 3.7 mph NW6.0 kmh NW 7.0 mph11.3 kmh 29.85 in1010.8 mb 0.00 in0.0 mm 0.00 in0.0 mm 0.00 in0.0 mm
04:20 AM 46.5°F8.1°C 40.4°F4.7°C 79% 2.6 mph WNW4.2 kmh WNW 11.0 mph17.7 kmh 29.85 in1010.8 mb 0.00 in0.0 mm 0.00 in0.0 mm 0.00 in0.0 mm
04:25 AM 46.4°F8.0°C 40.3°F4.6°C 79% 3.1 mph WNW5.0 kmh WNW 11.0 mph17.7 kmh 29.85 in1010.8 mb 0.00 in0.0 mm 0.00 in0.0 mm 0.00 in0.0 mm
04:30 AM 46.2°F7.9°C 40.0°F4.4°C 79% 2.9 mph W4.7 kmh W 11.0 mph17.7 kmh 29.86 in1011.2 mb 0.00 in0.0 mm 0.00 in0.0 mm 0.00 in0.0 mm
04:35 AM 46.1°F7.8°C 40.0°F4.4°C 79% 2.8 mph WNW4.5 kmh WNW 7.0 mph11.3 kmh 29.86 in1011.2 mb 0.00 in0.0 mm 0.00 in0.0 mm 0.00 in0.0 mm
04:40 AM 45.9°F7.7°C 40.1°F4.5°C 80% 2.2 mph WNW3.5 kmh WNW 7.0 mph11.3 kmh 29.86 in1011.2 mb 0.00 in0.0 mm 0.00 in0.0 mm 0.00 in0.0 mm
04:45 AM 45.7°F7.6°C 39.9°F4.4°C 80% 1.9 mph W3.1 kmh W 7.0 mph11.3 kmh 29.85 in1010.8 mb 0.00 in0.0 mm 0.00 in0.0 mm 0.00 in0.0 mm
04:50 AM 45.5°F7.5°C 39.7°F4.3°C 80% 1.7 mph WNW2.7 kmh WNW 6.0 mph9.7 kmh 29.85 in1010.8 mb 0.00 in0.0 mm 0.00 in0.0 mm 0.00 in0.0 mm
04:55 AM 45.3°F7.4°C 39.8°F4.3°C 81% 2.0 mph W3.2 kmh W 6.0 mph9.7 kmh 29.85 in1010.8 mb 0.00 in0.0 mm 0.00 in0.0 mm 0.00 in0.0 mm
05:00 AM 45.2°F7.3°C 39.7°F4.3°C 81% 2.6 mph W4.2 kmh W 6.0 mph9.7 kmh 29.85 in1010.8 mb 0.00 in0.0 mm 0.00 in0.0 mm 0.00 in0.0 mm
05:05 AM 45.0°F7.2°C 39.8°F4.3°C 82% 1.6 mph W2.6 kmh W 5.0 mph8.0 kmh 29.85 in1010.8 mb 0.00 in0.0 mm 0.00 in0.0 mm 0.00 in0.0 mm
05:10 AM 44.8°F7.1°C 39.6°F4.2°C 82% 2.0 mph W3.2 kmh W 5.0 mph8.0 kmh 29.85 in1010.8 mb 0.00 in0.0 mm 0.00 in0.0 mm 0.00 in0.0 mm
05:15 AM 44.6°F7.0°C 39.8°F4.3°C 83% 1.7 mph W2.7 kmh W 5.0 mph8.0 kmh 29.85 in1010.8 mb 0.00 in0.0 mm 0.00 in0.0 mm 0.00 in0.0 mm
05:20 AM 44.5°F6.9°C 39.7°F4.3°C 83% 2.8 mph W4.5 kmh W 6.0 mph9.7 kmh 29.85 in1010.8 mb 0.00 in0.0 mm 0.00 in0.0 mm 0.00 in0.0 mm
05:25 AM 44.4°F6.9°C 39.6°F4.2°C 83% 2.0 mph W3.2 kmh W 6.0 mph9.7 kmh 29.86 in1011.2 mb 0.00 in0.0 mm 0.00 in0.0 mm 0.00 in0.0 mm
05:30 AM 44.3°F6.8°C 39.8°F4.3°C 84% 1.8 mph WNW2.9 kmh WNW 6.0 mph9.7 kmh 29.85 in1010.8 mb 0.00 in0.0 mm 0.00 in0.0 mm 0.00 in0.0 mm
05:35 AM 44.1°F6.7°C 39.6°F4.2°C 84% 1.9 mph WNW3.1 kmh WNW 6.0 mph9.7 kmh 29.85 in1010.8 mb 0.00 in0.0 mm 0.00 in0.0 mm 0.00 in0.0 mm
05:40 AM 44.1°F6.7°C 39.6°F4.2°C 84% 2.3 mph W3.7 kmh W 6.0 mph9.7 kmh 29.85 in1010.8 mb 0.00 in0.0 mm 0.00 in0.0 mm 0.00 in0.0 mm
05:45 AM 44.1°F6.7°C 39.6°F4.2°C 84% 2.1 mph WNW3.4 kmh WNW 5.0 mph8.0 kmh 29.86 in1011.2 mb 0.00 in0.0 mm 0.00 in0.0 mm 0.00 in0.0 mm
05:50 AM 44.1°F6.7°C 39.6°F4.2°C 84% 1.9 mph W3.1 kmh W 5.0 mph8.0 kmh 29.86 in1011.2 mb 0.00 in0.0 mm 0.00 in0.0 mm 0.00 in0.0 mm
05:55 AM 44.2°F6.8°C 39.7°F4.3°C 84% 2.1 mph W3.4 kmh W 5.0 mph8.0 kmh 29.86 in1011.2 mb 0.00 in0.0 mm 0.00 in0.0 mm 0.00 in0.0 mm
06:00 AM 44.3°F6.8°C 39.8°F4.3°C 84% 2.1 mph W3.4 kmh W 5.0 mph8.0 kmh 29.86 in1011.2 mb 0.00 in0.0 mm 0.00 in0.0 mm 0.00 in0.0 mm
06:05 AM 44.3°F6.8°C 39.8°F4.3°C 84% 2.1 mph W3.4 kmh W 6.0 mph9.7 kmh 29.86 in1011.2 mb 0.00 in0.0 mm 0.00 in0.0 mm 0.00 in0.0 mm
06:10 AM 44.3°F6.8°C 39.8°F4.3°C 84% 2.3 mph WSW3.7 kmh WSW 6.0 mph9.7 kmh 29.86 in1011.2 mb 0.00 in0.0 mm 0.00 in0.0 mm 0.00 in0.0 mm
06:15 AM 44.2°F6.8°C 39.7°F4.3°C 84% 2.1 mph W3.4 kmh W 6.0 mph9.7 kmh 29.86 in1011.2 mb 0.00 in0.0 mm 0.00 in0.0 mm 0.00 in0.0 mm
06:20 AM 44.2°F6.8°C 39.7°F4.3°C 84% 1.0 mph WSW1.6 kmh WSW 5.0 mph8.0 kmh 29.86 in1011.2 mb 0.00 in0.0 mm 0.00 in0.0 mm 0.00 in0.0 mm
06:25 AM 44.1°F6.7°C 39.6°F4.2°C 84% 1.5 mph WSW2.4 kmh WSW 5.0 mph8.0 kmh 29.86 in1011.2 mb 0.00 in0.0 mm 0.00 in0.0 mm 0.00 in0.0 mm
06:30 AM 44.1°F6.7°C 39.6°F4.2°C 84% 1.2 mph W1.9 kmh W 4.0 mph6.4 kmh 29.86 in1011.2 mb 0.00 in0.0 mm 0.00 in0.0 mm 0.00 in0.0 mm
06:35 AM 44.1°F6.7°C 39.9°F4.4°C 85% 1.2 mph W1.9 kmh W 3.0 mph4.8 kmh 29.86 in1011.2 mb 0.00 in0.0 mm 0.00 in0.0 mm 0.00 in0.0 mm
06:40 AM 44.1°F6.7°C 39.9°F4.4°C 85% 1.6 mph W2.6 kmh W 4.0 mph6.4 kmh 29.87 in1011.5 mb 0.00 in0.0 mm 0.00 in0.0 mm 0.00 in0.0 mm
06:45 AM 44.1°F6.7°C 39.9°F4.4°C 85% 3.3 mph W5.3 kmh W 5.0 mph8.0 kmh 29.87 in1011.5 mb 0.00 in0.0 mm 0.00 in0.0 mm 0.00 in0.0 mm
06:50 AM 44.1°F6.7°C 39.9°F4.4°C 85% 2.1 mph W3.4 kmh W 5.0 mph8.0 kmh 29.87 in1011.5 mb 0.00 in0.0 mm 0.00 in0.0 mm 0.00 in0.0 mm
06:55 AM 44.1°F6.7°C 39.9°F4.4°C 85% 2.3 mph W3.7 kmh W 5.0 mph8.0 kmh 29.88 in1011.9 mb 0.00 in0.0 mm 0.00 in0.0 mm 0.00 in0.0 mm
07:00 AM 44.1°F6.7°C 39.9°F4.4°C 85% 2.7 mph W4.3 kmh W 5.0 mph8.0 kmh 29.88 in1011.9 mb 0.00 in0.0 mm 0.00 in0.0 mm 0.00 in0.0 mm
07:05 AM 44.2°F6.8°C 40.0°F4.4°C 85% 2.4 mph W3.9 kmh W 5.0 mph8.0 kmh 29.88 in1011.9 mb 0.00 in0.0 mm 0.00 in0.0 mm 0.00 in0.0 mm
07:10 AM 44.2°F6.8°C 39.7°F4.3°C 84% 3.2 mph WNW5.1 kmh WNW 6.0 mph9.7 kmh 29.88 in1011.9 mb 0.00 in0.0 mm 0.00 in0.0 mm 0.00 in0.0 mm
07:15 AM 44.4°F6.9°C 39.9°F4.4°C 84% 2.1 mph W3.4 kmh W 6.0 mph9.7 kmh 29.88 in1011.9 mb 0.00 in0.0 mm 0.00 in0.0 mm 0.00 in0.0 mm
07:20 AM 44.5°F6.9°C 39.7°F4.3°C 83% 3.1 mph WNW5.0 kmh WNW 6.0 mph9.7 kmh 29.89 in1012.2 mb 0.00 in0.0 mm 0.00 in0.0 mm 0.00 in0.0 mm
07:25 AM 44.6°F7.0°C 39.8°F4.3°C 83% 3.5 mph W5.6 kmh W 7.0 mph11.3 kmh 29.89 in1012.2 mb 0.00 in0.0 mm 0.00 in0.0 mm 0.00 in0.0 mm
07:30 AM 44.6°F7.0°C 39.8°F4.3°C 83% 3.7 mph WNW6.0 kmh WNW 7.0 mph11.3 kmh 29.89 in1012.2 mb 0.00 in0.0 mm 0.00 in0.0 mm 0.00 in0.0 mm
07:35 AM 44.6°F7.0°C 39.5°F4.2°C 82% 2.3 mph WNW3.7 kmh WNW 8.0 mph12.9 kmh 29.89 in1012.2 mb 0.00 in0.0 mm 0.00 in0.0 mm 0.00 in0.0 mm
07:40 AM 44.7°F7.1°C 39.6°F4.2°C 82% 2.1 mph WNW3.4 kmh WNW 8.0 mph12.9 kmh 29.89 in1012.2 mb 0.00 in0.0 mm 0.00 in0.0 mm 0.00 in0.0 mm
07:45 AM 44.7°F7.1°C 39.6°F4.2°C 82% 2.8 mph W4.5 kmh W 8.0 mph12.9 kmh 29.90 in1012.5 mb 0.00 in0.0 mm 0.00 in0.0 mm 0.00 in0.0 mm
07:50 AM 44.8°F7.1°C 39.6°F4.2°C 82% 2.1 mph W3.4 kmh W 8.0 mph12.9 kmh 29.90 in1012.5 mb 0.00 in0.0 mm 0.00 in0.0 mm 0.00 in0.0 mm
07:55 AM 44.8°F7.1°C 39.6°F4.2°C 82% 4.2 mph W6.8 kmh W 10.0 mph16.1 kmh 29.90 in1012.5 mb 0.00 in0.0 mm 0.00 in0.0 mm 0.00 in0.0 mm
08:00 AM 44.9°F7.2°C 39.7°F4.3°C 82% 3.7 mph WNW6.0 kmh WNW 10.0 mph16.1 kmh 29.90 in1012.5 mb 0.00 in0.0 mm 0.00 in0.0 mm 0.00 in0.0 mm
08:05 AM 45.0°F7.2°C 39.5°F4.2°C 81% 3.2 mph W5.1 kmh W 10.0 mph16.1 kmh 29.90 in1012.5 mb 0.00 in0.0 mm 0.00 in0.0 mm 0.00 in0.0 mm
08:10 AM 45.1°F7.3°C 39.6°F4.2°C 81% 2.7 mph W4.3 kmh W 10.0 mph16.1 kmh 29.90 in1012.5 mb 0.00 in0.0 mm 0.00 in0.0 mm 0.00 in0.0 mm
08:15 AM 45.2°F7.3°C 39.7°F4.3°C 81% 3.2 mph WNW5.1 kmh WNW 9.0 mph14.5 kmh 29.90 in1012.5 mb 0.00 in0.0 mm 0.00 in0.0 mm 0.00 in0.0 mm
08:20 AM 45.3°F7.4°C 39.5°F4.2°C 80% 3.0 mph WNW4.8 kmh WNW 9.0 mph14.5 kmh 29.90 in1012.5 mb 0.00 in0.0 mm 0.00 in0.0 mm 0.00 in0.0 mm
08:25 AM 45.4°F7.4°C 39.6°F4.2°C 80% 3.7 mph WNW6.0 kmh WNW 9.0 mph14.5 kmh 29.91 in1012.9 mb 0.00 in0.0 mm 0.00 in0.0 mm 0.00 in0.0 mm
08:30 AM 45.6°F7.6°C 39.8°F4.3°C 80% 2.4 mph W3.9 kmh W 9.0 mph14.5 kmh 29.91 in1012.9 mb 0.00 in0.0 mm 0.00 in0.0 mm 0.00 in0.0 mm
08:35 AM 45.7°F7.6°C 39.9°F4.4°C 80% 3.9 mph WNW6.3 kmh WNW 9.0 mph14.5 kmh 29.91 in1012.9 mb 0.00 in0.0 mm 0.00 in0.0 mm 0.00 in0.0 mm
08:40 AM 45.7°F7.6°C 39.6°F4.2°C 79% 3.9 mph WNW6.3 kmh WNW 9.0 mph14.5 kmh 29.91 in1012.9 mb 0.00 in0.0 mm 0.00 in0.0 mm 0.00 in0.0 mm
08:45 AM 45.7°F7.6°C 39.6°F4.2°C 79% 1.6 mph NW2.6 kmh NW 9.0 mph14.5 kmh 29.91 in1012.9 mb 0.00 in0.0 mm 0.00 in0.0 mm 0.00 in0.0 mm
08:49 AM 45.8°F7.7°C 39.7°F4.3°C 79% 3.0 mph WNW4.8 kmh WNW 9.0 mph14.5 kmh 29.90 in1012.5 mb 0.00 in0.0 mm 0.00 in0.0 mm 0.00 in0.0 mm
08:54 AM 45.8°F7.7°C 39.7°F4.3°C 79% 2.2 mph WNW3.5 kmh WNW 9.0 mph14.5 kmh 29.91 in1012.9 mb 0.00 in0.0 mm 0.00 in0.0 mm 0.00 in0.0 mm
08:59 AM 46.0°F7.8°C 39.9°F4.4°C 79% 3.0 mph W4.8 kmh W 6.0 mph9.7 kmh 29.91 in1012.9 mb 0.00 in0.0 mm 0.00 in0.0 mm 0.00 in0.0 mm
09:04 AM 46.0°F7.8°C 39.9°F4.4°C 79% 2.1 mph WNW3.4 kmh WNW 8.0 mph12.9 kmh 29.91 in1012.9 mb 0.00 in0.0 mm 0.00 in0.0 mm 0.00 in0.0 mm
09:09 AM 46.1°F7.8°C 39.9°F4.4°C 79% 3.4 mph WNW5.5 kmh WNW 8.0 mph12.9 kmh 29.92 in1013.2 mb 0.00 in0.0 mm 0.00 in0.0 mm 0.00 in0.0 mm
09:14 AM 46.1°F7.8°C 40.0°F4.4°C 79% 1.7 mph WNW2.7 kmh WNW 8.0 mph12.9 kmh 29.92 in1013.2 mb 0.00 in0.0 mm 0.00 in0.0 mm 0.00 in0.0 mm
09:19 AM 46.2°F7.9°C 40.1°F4.5°C 79% 1.9 mph WNW3.1 kmh WNW 8.0 mph12.9 kmh 29.93 in1013.5 mb 0.00 in0.0 mm 0.00 in0.0 mm 0.00 in0.0 mm
09:24 AM 46.4°F8.0°C 40.3°F4.6°C 79% 2.6 mph WNW4.2 kmh WNW 8.0 mph12.9 kmh 29.93 in1013.5 mb 0.00 in0.0 mm 0.00 in0.0 mm 0.00 in0.0 mm
09:29 AM 46.5°F8.1°C 40.4°F4.7°C 79% 2.2 mph NW3.5 kmh NW 8.0 mph12.9 kmh 29.93 in1013.5 mb 0.00 in0.0 mm 0.00 in0.0 mm 0.00 in0.0 mm
09:34 AM 46.7°F8.2°C 40.2°F4.6°C 78% 2.6 mph WNW4.2 kmh WNW 8.0 mph12.9 kmh 29.93 in1013.5 mb 0.00 in0.0 mm 0.00 in0.0 mm 0.00 in0.0 mm
09:39 AM 46.7°F8.2°C 40.2°F4.6°C 78% 2.6 mph NW4.2 kmh NW 9.0 mph14.5 kmh 29.93 in1013.5 mb 0.00 in0.0 mm 0.00 in0.0 mm 0.00 in0.0 mm
09:44 AM 46.8°F8.2°C 40.3°F4.6°C 78% 1.9 mph NW3.1 kmh NW 9.0 mph14.5 kmh 29.93 in1013.5 mb 0.00 in0.0 mm 0.00 in0.0 mm 0.00 in0.0 mm
09:49 AM 47.0°F8.3°C 40.5°F4.7°C 78% 2.1 mph W3.4 kmh W 9.0 mph14.5 kmh 29.93 in1013.5 mb 0.00 in0.0 mm 0.00 in0.0 mm 0.00 in0.0 mm
09:54 AM 47.1°F8.4°C 40.6°F4.8°C 78% 2.0 mph W3.2 kmh W 7.0 mph11.3 kmh 29.94 in1013.9 mb 0.00 in0.0 mm 0.00 in0.0 mm 0.00 in0.0 mm
09:59 AM 47.3°F8.5°C 40.8°F4.9°C 78% 2.3 mph WNW3.7 kmh WNW 7.0 mph11.3 kmh 29.94 in1013.9 mb 0.00 in0.0 mm 0.00 in0.0 mm 0.00 in0.0 mm
10:04 AM 47.5°F8.6°C 40.7°F4.8°C 77% 3.2 mph W5.1 kmh W 9.0 mph14.5 kmh 29.94 in1013.9 mb 0.00 in0.0 mm 0.00 in0.0 mm 0.00 in0.0 mm
10:09 AM 47.5°F8.6°C 40.7°F4.8°C 77% 3.3 mph W5.3 kmh W 9.0 mph14.5 kmh 29.93 in1013.5 mb 0.00 in0.0 mm 0.00 in0.0 mm 0.00 in0.0 mm
10:14 AM 47.6°F8.7°C 40.7°F4.8°C 77% 3.0 mph WNW4.8 kmh WNW 9.0 mph14.5 kmh 29.93 in1013.5 mb 0.00 in0.0 mm 0.00 in0.0 mm 0.00 in0.0 mm
10:19 AM 47.8°F8.8°C 40.3°F4.6°C 75% 3.8 mph WNW6.1 kmh WNW 9.0 mph14.5 kmh 29.93 in1013.5 mb 0.00 in0.0 mm 0.00 in0.0 mm 0.00 in0.0 mm
10:24 AM 47.9°F8.8°C 40.8°F4.9°C 76% 2.9 mph WNW4.7 kmh WNW 9.0 mph14.5 kmh 29.93 in1013.5 mb 0.00 in0.0 mm 0.00 in0.0 mm 0.00 in0.0 mm
10:29 AM 48.3°F9.1°C 40.8°F4.9°C 75% 4.0 mph W6.4 kmh W 9.0 mph14.5 kmh 29.93 in1013.5 mb 0.00 in0.0 mm 0.00 in0.0 mm 0.00 in0.0 mm
10:34 AM 49.1°F9.5°C 41.2°F5.1°C 74% 4.1 mph WNW6.6 kmh WNW 9.0 mph14.5 kmh 29.94 in1013.9 mb 0.00 in0.0 mm 0.00 in0.0 mm 0.00 in0.0 mm
10:39 AM 49.8°F9.9°C 41.5°F5.3°C 73% 3.5 mph WNW5.6 kmh WNW 10.0 mph16.1 kmh 29.93 in1013.5 mb 0.00 in0.0 mm 0.00 in0.0 mm 0.00 in0.0 mm
10:44 AM 50.3°F10.2°C 41.4°F5.2°C 71% 2.8 mph NW4.5 kmh NW 10.0 mph16.1 kmh 29.93 in1013.5 mb 0.00 in0.0 mm 0.00 in0.0 mm 0.00 in0.0 mm
10:49 AM 50.8°F10.4°C 40.3°F4.6°C 67% 3.8 mph NW6.1 kmh NW 10.0 mph16.1 kmh 29.93 in1013.5 mb 0.00 in0.0 mm 0.00 in0.0 mm 0.00 in0.0 mm
10:54 AM 51.0°F10.6°C 40.2°F4.6°C 66% 3.8 mph W6.1 kmh W 9.0 mph14.5 kmh 29.93 in1013.5 mb 0.00 in0.0 mm 0.00 in0.0 mm 0.00 in0.0 mm
10:59 AM 51.6°F10.9°C 40.7°F4.8°C 66% 2.5 mph NW4.0 kmh NW 8.0 mph12.9 kmh 29.93 in1013.5 mb 0.00 in0.0 mm 0.00 in0.0 mm 0.00 in0.0 mm
11:04 AM 52.4°F11.3°C 41.1°F5.1°C 65% 2.9 mph WNW4.7 kmh WNW 8.0 mph12.9 kmh 29.92 in1013.2 mb 0.00 in0.0 mm 0.00 in0.0 mm 0.00 in0.0 mm
11:09 AM 52.5°F11.4°C 40.3°F4.6°C 63% 2.9 mph WNW4.7 kmh WNW 7.0 mph11.3 kmh 29.92 in1013.2 mb 0.00 in0.0 mm 0.00 in0.0 mm 0.00 in0.0 mm
11:14 AM 52.8°F11.6°C 41.1°F5.1°C 64% 3.3 mph WNW5.3 kmh WNW 6.0 mph9.7 kmh 29.92 in1013.2 mb 0.00 in0.0 mm 0.00 in0.0 mm 0.00 in0.0 mm
11:19 AM 53.4°F11.9°C 40.8°F4.9°C 62% 2.6 mph WNW4.2 kmh WNW 7.0 mph11.3 kmh 29.93 in1013.5 mb 0.00 in0.0 mm 0.00 in0.0 mm 0.00 in0.0 mm
11:24 AM 53.5°F11.9°C 40.1°F4.5°C 60% 5.5 mph WNW8.9 kmh WNW 10.0 mph16.1 kmh 29.93 in1013.5 mb 0.00 in0.0 mm 0.00 in0.0 mm 0.00 in0.0 mm
11:29 AM 53.8°F12.1°C 40.8°F4.9°C 61% 2.8 mph W4.5 kmh W 10.0 mph16.1 kmh 29.93 in1013.5 mb 0.00 in0.0 mm 0.00 in0.0 mm 0.00 in0.0 mm
11:34 AM 53.9°F12.2°C 40.9°F4.9°C 61% 3.8 mph W6.1 kmh W 10.0 mph16.1 kmh 29.93 in1013.5 mb 0.00 in0.0 mm 0.00 in0.0 mm 0.00 in0.0 mm
11:39 AM 54.3°F12.4°C 41.1°F5.1°C 61% 2.5 mph NW4.0 kmh NW 10.0 mph16.1 kmh 29.93 in1013.5 mb 0.00 in0.0 mm 0.00 in0.0 mm 0.00 in0.0 mm
11:44 AM 54.9°F12.7°C 40.9°F4.9°C 59% 2.0 mph W3.2 kmh W 9.0 mph14.5 kmh 29.93 in1013.5 mb 0.00 in0.0 mm 0.00 in0.0 mm 0.00 in0.0 mm
11:49 AM 55.5°F13.1°C 41.9°F5.5°C 60% 2.6 mph NW4.2 kmh NW 8.0 mph12.9 kmh 29.92 in1013.2 mb 0.00 in0.0 mm 0.00 in0.0 mm 0.00 in0.0 mm
11:54 AM 55.7°F13.2°C 41.2°F5.1°C 58% 1.2 mph SW1.9 kmh SW 7.0 mph11.3 kmh 29.92 in1013.2 mb 0.00 in0.0 mm 0.00 in0.0 mm 0.00 in0.0 mm
11:59 AM 55.5°F13.1°C 40.6°F4.8°C 57% 1.6 mph W2.6 kmh W 7.0 mph11.3 kmh 29.92 in1013.2 mb 0.00 in0.0 mm 0.00 in0.0 mm 0.00 in0.0 mm
12:04 PM 55.5°F13.1°C 41.1°F5.1°C 58% 2.6 mph WNW4.2 kmh WNW 7.0 mph11.3 kmh 29.92 in1013.2 mb 0.00 in0.0 mm 0.00 in0.0 mm 0.00 in0.0 mm
12:09 PM 55.7°F13.2°C 41.2°F5.1°C 58% 2.4 mph W3.9 kmh W 7.0 mph11.3 kmh 29.92 in1013.2 mb 0.00 in0.0 mm 0.00 in0.0 mm 0.00 in0.0 mm
12:14 PM 55.8°F13.2°C 40.8°F4.9°C 57% 5.1 mph W8.2 kmh W 9.0 mph14.5 kmh 29.92 in1013.2 mb 0.00 in0.0 mm 0.00 in0.0 mm 0.00 in0.0 mm
12:19 PM 56.1°F13.4°C 41.1°F5.1°C 57% 3.3 mph W5.3 kmh W 13.0 mph20.9 kmh 29.92 in1013.2 mb 0.00 in0.0 mm 0.00 in0.0 mm 0.00 in0.0 mm
12:24 PM 56.4°F13.6°C 41.4°F5.2°C 57% 3.3 mph W5.3 kmh W 13.0 mph20.9 kmh 29.91 in1012.9 mb 0.00 in0.0 mm 0.00 in0.0 mm 0.00 in0.0 mm
12:29 PM 56.6°F13.7°C 40.7°F4.8°C 55% 3.8 mph WNW6.1 kmh WNW 13.0 mph20.9 kmh 29.91 in1012.9 mb 0.00 in0.0 mm 0.00 in0.0 mm 0.00 in0.0 mm
12:34 PM 56.7°F13.7°C 41.3°F5.2°C 56% 2.6 mph WNW4.2 kmh WNW 13.0 mph20.9 kmh 29.91 in1012.9 mb 0.00 in0.0 mm 0.00 in0.0 mm 0.00 in0.0 mm
12:39 PM 56.6°F13.7°C 41.6°F5.3°C 57% 1.5 mph WSW2.4 kmh WSW 11.0 mph17.7 kmh 29.91 in1012.9 mb 0.00 in0.0 mm 0.00 in0.0 mm 0.00 in0.0 mm
12:44 PM 57.2°F14.0°C 42.2°F5.7°C 57% 1.6 mph W2.6 kmh W 8.0 mph12.9 kmh 29.91 in1012.9 mb 0.00 in0.0 mm 0.00 in0.0 mm 0.00 in0.0 mm
12:49 PM 57.8°F14.3°C 41.7°F5.4°C 55% 3.1 mph WSW5.0 kmh WSW 8.0 mph12.9 kmh 29.91 in1012.9 mb 0.00 in0.0 mm 0.00 in0.0 mm 0.00 in0.0 mm
12:54 PM 58.1°F14.5°C 41.1°F5.1°C 53% 3.6 mph WSW5.8 kmh WSW 8.0 mph12.9 kmh 29.91 in1012.9 mb 0.00 in0.0 mm 0.00 in0.0 mm 0.00 in0.0 mm
12:59 PM 58.3°F14.6°C 41.3°F5.2°C 53% 2.9 mph W4.7 kmh W 8.0 mph12.9 kmh 29.90 in1012.5 mb 0.00 in0.0 mm 0.00 in0.0 mm 0.00 in0.0 mm
01:04 PM 58.4°F14.7°C 40.9°F4.9°C 52% 2.2 mph WSW3.5 kmh WSW 8.0 mph12.9 kmh 29.90 in1012.5 mb 0.00 in0.0 mm 0.00 in0.0 mm 0.00 in0.0 mm
01:09 PM 58.4°F14.7°C 40.9°F4.9°C 52% 4.0 mph NW6.4 kmh NW 8.0 mph12.9 kmh 29.90 in1012.5 mb 0.00 in0.0 mm 0.00 in0.0 mm 0.00 in0.0 mm
01:14 PM 58.6°F14.8°C 40.5°F4.7°C 51% 3.2 mph WSW5.1 kmh WSW 8.0 mph12.9 kmh 29.90 in1012.5 mb 0.00 in0.0 mm 0.00 in0.0 mm 0.00 in0.0 mm
01:19 PM 58.9°F14.9°C 41.3°F5.2°C 52% 1.8 mph WSW2.9 kmh WSW 8.0 mph12.9 kmh 29.90 in1012.5 mb 0.00 in0.0 mm 0.00 in0.0 mm 0.00 in0.0 mm
01:24 PM 59.2°F15.1°C 41.1°F5.1°C 51% 4.6 mph WNW7.4 kmh WNW 11.0 mph17.7 kmh 29.90 in1012.5 mb 0.00 in0.0 mm 0.00 in0.0 mm 0.00 in0.0 mm
01:29 PM 59.3°F15.2°C 40.7°F4.8°C 50% 3.5 mph NW5.6 kmh NW 11.0 mph17.7 kmh 29.89 in1012.2 mb 0.00 in0.0 mm 0.00 in0.0 mm 0.00 in0.0 mm
01:34 PM 59.5°F15.3°C 40.8°F4.9°C 50% 3.0 mph SW4.8 kmh SW 11.0 mph17.7 kmh 29.89 in1012.2 mb 0.00 in0.0 mm 0.00 in0.0 mm 0.00 in0.0 mm
01:39 PM 59.7°F15.4°C 41.0°F5.0°C 50% 3.3 mph W5.3 kmh W 11.0 mph17.7 kmh 29.89 in1012.2 mb 0.00 in0.0 mm 0.00 in0.0 mm 0.00 in0.0 mm
01:44 PM 59.9°F15.5°C 40.7°F4.8°C 49% 4.0 mph W6.4 kmh W 11.0 mph17.7 kmh 29.89 in1012.2 mb 0.00 in0.0 mm 0.00 in0.0 mm 0.00 in0.0 mm
01:49 PM 59.7°F15.4°C 41.0°F5.0°C 50% 5.1 mph W8.2 kmh W 12.0 mph19.3 kmh 29.89 in1012.2 mb 0.00 in0.0 mm 0.00 in0.0 mm 0.00 in0.0 mm
01:54 PM 60.0°F15.6°C 40.8°F4.9°C 49% 4.1 mph WNW6.6 kmh WNW 12.0 mph19.3 kmh 29.89 in1012.2 mb 0.00 in0.0 mm 0.00 in0.0 mm 0.00 in0.0 mm
01:59 PM 59.9°F15.5°C 41.2°F5.1°C 50% 3.5 mph WNW5.6 kmh WNW 12.0 mph19.3 kmh 29.89 in1012.2 mb 0.00 in0.0 mm 0.00 in0.0 mm 0.00 in0.0 mm
02:04 PM 60.0°F15.6°C 41.3°F5.2°C 50% 5.5 mph SW8.9 kmh SW 12.0 mph19.3 kmh 29.89 in1012.2 mb 0.00 in0.0 mm 0.00 in0.0 mm 0.00 in0.0 mm
02:09 PM 60.2°F15.7°C 42.0°F5.6°C 51% 2.2 mph WSW3.5 kmh WSW 11.0 mph17.7 kmh 29.88 in1011.9 mb 0.00 in0.0 mm 0.00 in0.0 mm 0.00 in0.0 mm
02:14 PM 60.2°F15.7°C 41.0°F5.0°C 49% 4.1 mph WSW6.6 kmh WSW 11.0 mph17.7 kmh 29.88 in1011.9 mb 0.00 in0.0 mm 0.00 in0.0 mm 0.00 in0.0 mm
02:19 PM 60.6°F15.9°C 41.9°F5.5°C 50% 2.6 mph NW4.2 kmh NW 11.0 mph17.7 kmh 29.88 in1011.9 mb 0.00 in0.0 mm 0.00 in0.0 mm 0.00 in0.0 mm
02:24 PM 60.5°F15.8°C 41.2°F5.1°C 49% 3.1 mph W5.0 kmh W 10.0 mph16.1 kmh 29.88 in1011.9 mb 0.00 in0.0 mm 0.00 in0.0 mm 0.00 in0.0 mm
02:29 PM 61.0°F16.1°C 41.7°F5.4°C 49% 3.4 mph W5.5 kmh W 10.0 mph16.1 kmh 29.88 in1011.9 mb 0.00 in0.0 mm 0.00 in0.0 mm 0.00 in0.0 mm
02:34 PM 61.0°F16.1°C 41.7°F5.4°C 49% 2.0 mph WNW3.2 kmh WNW 9.0 mph14.5 kmh 29.87 in1011.5 mb 0.00 in0.0 mm 0.00 in0.0 mm 0.00 in0.0 mm
02:39 PM 61.3°F16.3°C 41.4°F5.2°C 48% 2.9 mph WSW4.7 kmh WSW 9.0 mph14.5 kmh 29.87 in1011.5 mb 0.00 in0.0 mm 0.00 in0.0 mm 0.00 in0.0 mm
02:44 PM 61.6°F16.4°C 41.7°F5.4°C 48% 1.3 mph SW2.1 kmh SW 7.0 mph11.3 kmh 29.88 in1011.9 mb 0.00 in0.0 mm 0.00 in0.0 mm 0.00 in0.0 mm
02:48 PM 61.6°F16.4°C 41.7°F5.4°C 48% 3.2 mph WSW5.1 kmh WSW 7.0 mph11.3 kmh 29.87 in1011.5 mb 0.00 in0.0 mm 0.00 in0.0 mm 0.00 in0.0 mm
02:53 PM 61.9°F16.6°C 41.4°F5.2°C 47% 2.0 mph W3.2 kmh W 7.0 mph11.3 kmh 29.88 in1011.9 mb 0.00 in0.0 mm 0.00 in0.0 mm 0.00 in0.0 mm
02:58 PM 62.3°F16.8°C 41.8°F5.4°C 47% 3.7 mph WSW6.0 kmh WSW 7.0 mph11.3 kmh 29.88 in1011.9 mb 0.00 in0.0 mm 0.00 in0.0 mm 0.00 in0.0 mm
03:03 PM 62.2°F16.8°C 41.1°F5.1°C 46% 2.8 mph WSW4.5 kmh WSW 9.0 mph14.5 kmh 29.88 in1011.9 mb 0.00 in0.0 mm 0.00 in0.0 mm 0.00 in0.0 mm
03:08 PM 62.7°F17.1°C 42.1°F5.6°C 47% 3.0 mph WSW4.8 kmh WSW 9.0 mph14.5 kmh 29.88 in1011.9 mb 0.00 in0.0 mm 0.00 in0.0 mm 0.00 in0.0 mm
03:13 PM 62.8°F17.1°C 41.7°F5.4°C 46% 2.6 mph WSW4.2 kmh WSW 9.0 mph14.5 kmh 29.88 in1011.9 mb 0.00 in0.0 mm 0.00 in0.0 mm 0.00 in0.0 mm
03:18 PM 63.0°F17.2°C 41.8°F5.4°C 46% 5.2 mph SW8.4 kmh SW 11.0 mph17.7 kmh 29.88 in1011.9 mb 0.00 in0.0 mm 0.00 in0.0 mm 0.00 in0.0 mm
03:23 PM 62.9°F17.2°C 41.2°F5.1°C 45% 5.0 mph W8.0 kmh W 11.0 mph17.7 kmh 29.88 in1011.9 mb 0.00 in0.0 mm 0.00 in0.0 mm 0.00 in0.0 mm
03:28 PM 62.9°F17.2°C 41.2°F5.1°C 45% 4.1 mph WSW6.6 kmh WSW 11.0 mph17.7 kmh 29.88 in1011.9 mb 0.00 in0.0 mm 0.00 in0.0 mm 0.00 in0.0 mm
03:33 PM 63.0°F17.2°C 41.3°F5.2°C 45% 3.4 mph WSW5.5 kmh WSW 11.0 mph17.7 kmh 29.88 in1011.9 mb 0.00 in0.0 mm 0.00 in0.0 mm 0.00 in0.0 mm
03:38 PM 63.0°F17.2°C 41.3°F5.2°C 45% 3.7 mph WSW6.0 kmh WSW 11.0 mph17.7 kmh 29.88 in1011.9 mb 0.00 in0.0 mm 0.00 in0.0 mm 0.00 in0.0 mm
03:43 PM 62.7°F17.1°C 40.5°F4.7°C 44% 5.1 mph SW8.2 kmh SW 12.0 mph19.3 kmh 29.88 in1011.9 mb 0.00 in0.0 mm 0.00 in0.0 mm 0.00 in0.0 mm
03:48 PM 62.7°F17.1°C 40.4°F4.7°C 44% 4.3 mph W6.9 kmh W 12.0 mph19.3 kmh 29.88 in1011.9 mb 0.00 in0.0 mm 0.00 in0.0 mm 0.00 in0.0 mm
03:53 PM 62.8°F17.1°C 41.1°F5.1°C 45% 4.4 mph W7.1 kmh W 13.0 mph20.9 kmh 29.89 in1012.2 mb 0.00 in0.0 mm 0.00 in0.0 mm 0.00 in0.0 mm
03:58 PM 62.6°F17.0°C 40.3°F4.6°C 44% 4.4 mph W7.1 kmh W 13.0 mph20.9 kmh 29.89 in1012.2 mb 0.00 in0.0 mm 0.00 in0.0 mm 0.00 in0.0 mm
04:03 PM 62.6°F17.0°C 40.9°F4.9°C 45% 5.0 mph W8.0 kmh W 13.0 mph20.9 kmh 29.89 in1012.2 mb 0.00 in0.0 mm 0.00 in0.0 mm 0.00 in0.0 mm
04:08 PM 62.8°F17.1°C 41.1°F5.1°C 45% 3.7 mph W6.0 kmh W 13.0 mph20.9 kmh 29.89 in1012.2 mb 0.00 in0.0 mm 0.00 in0.0 mm 0.00 in0.0 mm
04:13 PM 62.8°F17.1°C 41.1°F5.1°C 45% 2.9 mph WNW4.7 kmh WNW 12.0 mph19.3 kmh 29.89 in1012.2 mb 0.00 in0.0 mm 0.00 in0.0 mm 0.00 in0.0 mm
04:18 PM 62.9°F17.2°C 41.2°F5.1°C 45% 1.9 mph WSW3.1 kmh WSW 10.0 mph16.1 kmh 29.89 in1012.2 mb 0.00 in0.0 mm 0.00 in0.0 mm 0.00 in0.0 mm
04:23 PM 62.9°F17.2°C 41.2°F5.1°C 45% 4.1 mph W6.6 kmh W 9.0 mph14.5 kmh 29.89 in1012.2 mb 0.00 in0.0 mm 0.00 in0.0 mm 0.00 in0.0 mm
04:28 PM 63.0°F17.2°C 41.3°F5.2°C 45% 2.0 mph WSW3.2 kmh WSW 7.0 mph11.3 kmh 29.89 in1012.2 mb 0.00 in0.0 mm 0.00 in0.0 mm 0.00 in0.0 mm
04:33 PM 63.1°F17.3°C 41.3°F5.2°C 45% 2.4 mph WSW3.9 kmh WSW 7.0 mph11.3 kmh 29.89 in1012.2 mb 0.00 in0.0 mm 0.00 in0.0 mm 0.00 in0.0 mm
04:38 PM 63.2°F17.3°C 42.0°F5.6°C 46% 1.5 mph W2.4 kmh W 7.0 mph11.3 kmh 29.89 in1012.2 mb 0.00 in0.0 mm 0.00 in0.0 mm 0.00 in0.0 mm
04:43 PM 63.0°F17.2°C 41.8°F5.4°C 46% 3.2 mph WSW5.1 kmh WSW 6.0 mph9.7 kmh 29.90 in1012.5 mb 0.00 in0.0 mm 0.00 in0.0 mm 0.00 in0.0 mm
04:48 PM 62.6°F17.0°C 41.5°F5.3°C 46% 3.9 mph W6.3 kmh W 7.0 mph11.3 kmh 29.90 in1012.5 mb 0.00 in0.0 mm 0.00 in0.0 mm 0.00 in0.0 mm
04:53 PM 62.3°F16.8°C 41.8°F5.4°C 47% 2.4 mph WNW3.9 kmh WNW 7.0 mph11.3 kmh 29.90 in1012.5 mb 0.00 in0.0 mm 0.00 in0.0 mm 0.00 in0.0 mm
04:58 PM 62.1°F16.7°C 41.6°F5.3°C 47% 1.7 mph WSW2.7 kmh WSW 7.0 mph11.3 kmh 29.90 in1012.5 mb 0.00 in0.0 mm 0.00 in0.0 mm 0.00 in0.0 mm
05:03 PM 61.8°F16.6°C 41.9°F5.5°C 48% 1.7 mph W2.7 kmh W 7.0 mph11.3 kmh 29.90 in1012.5 mb 0.00 in0.0 mm 0.00 in0.0 mm 0.00 in0.0 mm
05:08 PM 61.7°F16.5°C 42.3°F5.7°C 49% 2.2 mph WSW3.5 kmh WSW 7.0 mph11.3 kmh 29.91 in1012.9 mb 0.00 in0.0 mm 0.00 in0.0 mm 0.00 in0.0 mm
05:13 PM 61.2°F16.2°C 41.9°F5.5°C 49% 1.6 mph SW2.6 kmh SW 7.0 mph11.3 kmh 29.91 in1012.9 mb 0.00 in0.0 mm 0.00 in0.0 mm 0.00 in0.0 mm
05:18 PM 60.7°F15.9°C 42.0°F5.6°C 50% 1.2 mph SW1.9 kmh SW 7.0 mph11.3 kmh 29.91 in1012.9 mb 0.00 in0.0 mm 0.00 in0.0 mm 0.00 in0.0 mm
05:24 PM 60.3°F15.7°C 42.6°F5.9°C 52% 1.0 mph SW1.6 kmh SW 4.0 mph6.4 kmh 29.91 in1012.9 mb 0.00 in0.0 mm 0.00 in0.0 mm 0.00 in0.0 mm
05:29 PM 59.9°F15.5°C 42.2°F5.7°C 52% 1.5 mph SW2.4 kmh SW 4.0 mph6.4 kmh 29.91 in1012.9 mb 0.00 in0.0 mm 0.00 in0.0 mm 0.00 in0.0 mm
05:34 PM 59.5°F15.3°C 42.3°F5.7°C 53% 1.3 mph SW2.1 kmh SW 4.0 mph6.4 kmh 29.91 in1012.9 mb 0.00 in0.0 mm 0.00 in0.0 mm 0.00 in0.0 mm
05:39 PM 59.0°F15.0°C 42.4°F5.8°C 54% 1.0 mph SW1.6 kmh SW 4.0 mph6.4 kmh 29.92 in1013.2 mb 0.00 in0.0 mm 0.00 in0.0 mm 0.00 in0.0 mm
05:44 PM 58.6°F14.8°C 42.6°F5.9°C 55% 1.0 mph SW1.6 kmh SW 4.0 mph6.4 kmh 29.91 in1012.9 mb 0.00 in0.0 mm 0.00 in0.0 mm 0.00 in0.0 mm
05:48 PM 58.2°F14.6°C 42.2°F5.7°C 55% 1.1 mph SW1.8 kmh SW 3.0 mph4.8 kmh 29.92 in1013.2 mb 0.00 in0.0 mm 0.00 in0.0 mm 0.00 in0.0 mm
05:54 PM 57.9°F14.4°C 41.9°F5.5°C 55% 1.2 mph WSW1.9 kmh WSW 4.0 mph6.4 kmh 29.92 in1013.2 mb 0.00 in0.0 mm 0.00 in0.0 mm 0.00 in0.0 mm
05:59 PM 57.7°F14.3°C 42.2°F5.7°C 56% 1.2 mph WSW1.9 kmh WSW 4.0 mph6.4 kmh 29.92 in1013.2 mb 0.00 in0.0 mm 0.00 in0.0 mm 0.00 in0.0 mm
06:04 PM 57.5°F14.2°C 41.9°F5.5°C 56% 1.2 mph SW1.9 kmh SW 4.0 mph6.4 kmh 29.92 in1013.2 mb 0.00 in0.0 mm 0.00 in0.0 mm 0.00 in0.0 mm
06:09 PM 57.2°F14.0°C 42.2°F5.7°C 57% Calm Calm 4.0 mph6.4 kmh 29.93 in1013.5 mb 0.00 in0.0 mm 0.00 in0.0 mm 0.00 in0.0 mm
06:14 PM 56.9°F13.8°C 41.9°F5.5°C 57% 1.0 mph SW1.6 kmh SW 2.0 mph3.2 kmh 29.93 in1013.5 mb 0.00 in0.0 mm 0.00 in0.0 mm 0.00 in0.0 mm
06:19 PM 56.8°F13.8°C 42.3°F5.7°C 58% 1.3 mph SW2.1 kmh SW 2.0 mph3.2 kmh 29.93 in1013.5 mb 0.00 in0.0 mm 0.00 in0.0 mm 0.00 in0.0 mm
06:24 PM 56.7°F13.7°C 42.2°F5.7°C 58% 1.3 mph SW2.1 kmh SW 3.0 mph4.8 kmh 29.93 in1013.5 mb 0.00 in0.0 mm 0.00 in0.0 mm 0.00 in0.0 mm
06:29 PM 56.6°F13.7°C 42.1°F5.6°C 58% 1.3 mph SW2.1 kmh SW 3.0 mph4.8 kmh 29.93 in1013.5 mb 0.00 in0.0 mm 0.00 in0.0 mm 0.00 in0.0 mm
06:34 PM 56.4°F13.6°C 41.9°F5.5°C 58% 1.5 mph WSW2.4 kmh WSW 3.0 mph4.8 kmh 29.94 in1013.9 mb 0.00 in0.0 mm 0.00 in0.0 mm 0.00 in0.0 mm
06:39 PM 56.3°F13.5°C 42.1°F5.6°C 59% 1.9 mph WSW3.1 kmh WSW 4.0 mph6.4 kmh 29.94 in1013.9 mb 0.00 in0.0 mm 0.00 in0.0 mm 0.00 in0.0 mm
06:44 PM 56.1°F13.4°C 42.1°F5.6°C 59% 2.2 mph SW3.5 kmh SW 5.0 mph8.0 kmh 29.94 in1013.9 mb 0.00 in0.0 mm 0.00 in0.0 mm 0.00 in0.0 mm
06:49 PM 55.9°F13.3°C 42.3°F5.7°C 60% 2.5 mph SW4.0 kmh SW 5.0 mph8.0 kmh 29.94 in1013.9 mb 0.00 in0.0 mm 0.00 in0.0 mm 0.00 in0.0 mm
06:54 PM 55.7°F13.2°C 42.1°F5.6°C 60% 1.8 mph SW2.9 kmh SW 5.0 mph8.0 kmh 29.94 in1013.9 mb 0.00 in0.0 mm 0.00 in0.0 mm 0.00 in0.0 mm
06:59 PM 55.3°F12.9°C 42.2°F5.7°C 61% 2.3 mph SW3.7 kmh SW 5.0 mph8.0 kmh 29.94 in1013.9 mb 0.00 in0.0 mm 0.00 in0.0 mm 0.00 in0.0 mm
07:04 PM 55.1°F12.8°C 42.4°F5.8°C 62% 2.6 mph SW4.2 kmh SW 6.0 mph9.7 kmh 29.94 in1013.9 mb 0.00 in0.0 mm 0.00 in0.0 mm 0.00 in0.0 mm
07:09 PM 54.9°F12.7°C 42.2°F5.7°C 62% 2.1 mph SW3.4 kmh SW 6.0 mph9.7 kmh 29.94 in1013.9 mb 0.00 in0.0 mm 0.00 in0.0 mm 0.00 in0.0 mm
07:14 PM 54.6°F12.6°C 42.3°F5.7°C 63% 1.9 mph SW3.1 kmh SW 6.0 mph9.7 kmh 29.95 in1014.2 mb 0.00 in0.0 mm 0.00 in0.0 mm 0.00 in0.0 mm
07:19 PM 54.6°F12.6°C 42.3°F5.7°C 63% 1.6 mph SW2.6 kmh SW 6.0 mph9.7 kmh 29.95 in1014.2 mb 0.00 in0.0 mm 0.00 in0.0 mm 0.00 in0.0 mm
07:24 PM 54.5°F12.5°C 42.3°F5.7°C 63% 2.5 mph SW4.0 kmh SW 6.0 mph9.7 kmh 29.95 in1014.2 mb 0.00 in0.0 mm 0.00 in0.0 mm 0.00 in0.0 mm
07:29 PM 54.3°F12.4°C 42.1°F5.6°C 63% 1.7 mph WSW2.7 kmh WSW 6.0 mph9.7 kmh 29.95 in1014.2 mb 0.00 in0.0 mm 0.00 in0.0 mm 0.00 in0.0 mm
07:34 PM 54.0°F12.2°C 42.2°F5.7°C 64% 1.3 mph SW2.1 kmh SW 5.0 mph8.0 kmh 29.95 in1014.2 mb 0.00 in0.0 mm 0.00 in0.0 mm 0.00 in0.0 mm
07:39 PM 53.8°F12.1°C 42.4°F5.8°C 65% 1.3 mph SW2.1 kmh SW 4.0 mph6.4 kmh 29.95 in1014.2 mb 0.00 in0.0 mm 0.00 in0.0 mm 0.00 in0.0 mm
07:44 PM 53.6°F12.0°C 42.2°F5.7°C 65% 2.0 mph SW3.2 kmh SW 4.0 mph6.4 kmh 29.95 in1014.2 mb 0.00 in0.0 mm 0.00 in0.0 mm 0.00 in0.0 mm
07:49 PM 53.4°F11.9°C 42.3°F5.7°C 66% 1.7 mph SW2.7 kmh SW 3.0 mph4.8 kmh 29.96 in1014.6 mb 0.00 in0.0 mm 0.00 in0.0 mm 0.00 in0.0 mm
07:54 PM 53.2°F11.8°C 42.1°F5.6°C 66% 1.4 mph WSW2.3 kmh WSW 3.0 mph4.8 kmh 29.96 in1014.6 mb 0.00 in0.0 mm 0.00 in0.0 mm 0.00 in0.0 mm
07:59 PM 53.2°F11.8°C 42.3°F5.7°C 66% 1.4 mph WSW2.3 kmh WSW 3.0 mph4.8 kmh 29.96 in1014.6 mb 0.00 in0.0 mm 0.00 in0.0 mm 0.00 in0.0 mm
08:04 PM 53.1°F11.7°C 42.2°F5.7°C 66% 1.6 mph SW2.6 kmh SW 5.0 mph8.0 kmh 29.96 in1014.6 mb 0.00 in0.0 mm 0.00 in0.0 mm 0.00 in0.0 mm
08:09 PM 53.0°F11.7°C 42.1°F5.6°C 66% 1.4 mph WSW2.3 kmh WSW 5.0 mph8.0 kmh 29.96 in1014.6 mb 0.00 in0.0 mm 0.00 in0.0 mm 0.00 in0.0 mm
08:14 PM 52.9°F11.6°C 42.0°F5.6°C 66% 1.3 mph WSW2.1 kmh WSW 5.0 mph8.0 kmh 29.96 in1014.6 mb 0.00 in0.0 mm 0.00 in0.0 mm 0.00 in0.0 mm
08:19 PM 52.8°F11.6°C 42.3°F5.7°C 67% 1.8 mph SW2.9 kmh SW 5.0 mph8.0 kmh 29.97 in1014.9 mb 0.00 in0.0 mm 0.00 in0.0 mm 0.00 in0.0 mm
08:24 PM 52.6°F11.4°C 41.9°F5.5°C 67% 1.4 mph WSW2.3 kmh WSW 4.0 mph6.4 kmh 29.97 in1014.9 mb 0.00 in0.0 mm 0.00 in0.0 mm 0.00 in0.0 mm
08:29 PM 52.5°F11.4°C 41.9°F5.5°C 67% 1.2 mph WSW1.9 kmh WSW 4.0 mph6.4 kmh 29.97 in1014.9 mb 0.00 in0.0 mm 0.00 in0.0 mm 0.00 in0.0 mm
08:34 PM 52.3°F11.3°C 42.2°F5.7°C 68% 1.7 mph SW2.7 kmh SW 4.0 mph6.4 kmh 29.97 in1014.9 mb 0.00 in0.0 mm 0.00 in0.0 mm 0.00 in0.0 mm
08:39 PM 52.3°F11.3°C 42.2°F5.7°C 68% 1.4 mph WSW2.3 kmh WSW 4.0 mph6.4 kmh 29.97 in1014.9 mb 0.00 in0.0 mm 0.00 in0.0 mm 0.00 in0.0 mm
08:44 PM 52.2°F11.2°C 42.1°F5.6°C 68% 1.4 mph WSW2.3 kmh WSW 4.0 mph6.4 kmh 29.98 in1015.2 mb 0.00 in0.0 mm 0.00 in0.0 mm 0.00 in0.0 mm
08:48 PM 52.1°F11.2°C 42.0°F5.6°C 68% 1.7 mph WSW2.7 kmh WSW 5.0 mph8.0 kmh 29.98 in1015.2 mb 0.00 in0.0 mm 0.00 in0.0 mm 0.00 in0.0 mm
08:53 PM 52.1°F11.2°C 42.0°F5.6°C 68% 2.0 mph SW3.2 kmh SW 5.0 mph8.0 kmh 29.98 in1015.2 mb 0.00 in0.0 mm 0.00 in0.0 mm 0.00 in0.0 mm
08:58 PM 52.2°F11.2°C 42.1°F5.6°C 68% 2.0 mph WSW3.2 kmh WSW 5.0 mph8.0 kmh 29.98 in1015.2 mb 0.00 in0.0 mm 0.00 in0.0 mm 0.00 in0.0 mm
09:03 PM 52.3°F11.3°C 42.0°F5.6°C 68% 1.7 mph WSW2.7 kmh WSW 5.0 mph8.0 kmh 29.98 in1015.2 mb 0.00 in0.0 mm 0.00 in0.0 mm 0.00 in0.0 mm
09:08 PM 52.2°F11.2°C 42.0°F5.6°C 68% 1.5 mph WSW2.4 kmh WSW 5.0 mph8.0 kmh 29.98 in1015.2 mb 0.00 in0.0 mm 0.00 in0.0 mm 0.00 in0.0 mm
09:13 PM 52.1°F11.2°C 42.0°F5.6°C 68% 1.2 mph WSW1.9 kmh WSW 5.0 mph8.0 kmh 29.98 in1015.2 mb 0.00 in0.0 mm 0.00 in0.0 mm 0.00 in0.0 mm
09:18 PM 52.1°F11.2°C 42.0°F5.6°C 68% 2.3 mph W3.7 kmh W 4.0 mph6.4 kmh 29.99 in1015.6 mb 0.00 in0.0 mm 0.00 in0.0 mm 0.00 in0.0 mm
09:23 PM 52.2°F11.2°C 42.1°F5.6°C 68% 2.0 mph WSW3.2 kmh WSW 5.0 mph8.0 kmh 29.98 in1015.2 mb 0.00 in0.0 mm 0.00 in0.0 mm 0.00 in0.0 mm
09:28 PM 52.3°F11.3°C 42.2°F5.7°C 68% 2.3 mph W3.7 kmh W 6.0 mph9.7 kmh 29.99 in1015.6 mb 0.00 in0.0 mm 0.00 in0.0 mm 0.00 in0.0 mm
09:33 PM 52.4°F11.3°C 42.3°F5.7°C 68% 2.3 mph W3.7 kmh W 6.0 mph9.7 kmh 29.99 in1015.6 mb 0.00 in0.0 mm 0.00 in0.0 mm 0.00 in0.0 mm
09:38 PM 52.5°F11.4°C 42.4°F5.8°C 68% 2.0 mph W3.2 kmh W 6.0 mph9.7 kmh 29.99 in1015.6 mb 0.00 in0.0 mm 0.00 in0.0 mm 0.00 in0.0 mm
09:43 PM 52.5°F11.4°C 42.2°F5.7°C 68% 1.9 mph WSW3.1 kmh WSW 6.0 mph9.7 kmh 29.99 in1015.6 mb 0.00 in0.0 mm 0.00 in0.0 mm 0.00 in0.0 mm
09:48 PM 52.4°F11.3°C 42.3°F5.7°C 68% 1.8 mph WSW2.9 kmh WSW 6.0 mph9.7 kmh 29.99 in1015.6 mb 0.00 in0.0 mm 0.00 in0.0 mm 0.00 in0.0 mm
09:53 PM 52.4°F11.3°C 42.3°F5.7°C 68% 1.9 mph W3.1 kmh W 6.0 mph9.7 kmh 29.99 in1015.6 mb 0.00 in0.0 mm 0.00 in0.0 mm 0.00 in0.0 mm
09:58 PM 52.4°F11.3°C 42.3°F5.7°C 68% 1.8 mph W2.9 kmh W 5.0 mph8.0 kmh 29.99 in1015.6 mb 0.00 in0.0 mm 0.00 in0.0 mm 0.00 in0.0 mm
10:03 PM 52.2°F11.2°C 42.1°F5.6°C 68% 1.7 mph W2.7 kmh W 4.0 mph6.4 kmh 29.99 in1015.6 mb 0.00 in0.0 mm 0.00 in0.0 mm 0.00 in0.0 mm
10:08 PM 52.1°F11.2°C 42.4°F5.8°C 69% 1.9 mph WSW3.1 kmh WSW 4.0 mph6.4 kmh 29.99 in1015.6 mb 0.00 in0.0 mm 0.00 in0.0 mm 0.00 in0.0 mm
10:13 PM 52.2°F11.2°C 42.3°F5.7°C 69% 2.1 mph W3.4 kmh W 6.0 mph9.7 kmh 29.99 in1015.6 mb 0.00 in0.0 mm 0.00 in0.0 mm 0.00 in0.0 mm
10:18 PM 52.1°F11.2°C 42.2°F5.7°C 69% 1.5 mph WSW2.4 kmh WSW 6.0 mph9.7 kmh 29.99 in1015.6 mb 0.00 in0.0 mm 0.00 in0.0 mm 0.00 in0.0 mm
10:23 PM 52.2°F11.2°C 42.3°F5.7°C 69% 2.8 mph W4.5 kmh W 6.0 mph9.7 kmh 29.99 in1015.6 mb 0.00 in0.0 mm 0.00 in0.0 mm 0.00 in0.0 mm
10:28 PM 52.2°F11.2°C 42.4°F5.8°C 69% 1.7 mph W2.7 kmh W 5.0 mph8.0 kmh 29.99 in1015.6 mb 0.00 in0.0 mm 0.00 in0.0 mm 0.00 in0.0 mm
10:33 PM 52.2°F11.2°C 42.4°F5.8°C 69% 1.6 mph W2.6 kmh W 5.0 mph8.0 kmh 29.99 in1015.6 mb 0.00 in0.0 mm 0.00 in0.0 mm 0.00 in0.0 mm
10:38 PM 52.1°F11.2°C 42.4°F5.8°C 69% 2.4 mph W3.9 kmh W 7.0 mph11.3 kmh 29.99 in1015.6 mb 0.00 in0.0 mm 0.00 in0.0 mm 0.00 in0.0 mm
10:43 PM 52.1°F11.2°C 42.7°F5.9°C 70% 1.8 mph W2.9 kmh W 7.0 mph11.3 kmh 29.99 in1015.6 mb 0.00 in0.0 mm 0.00 in0.0 mm 0.00 in0.0 mm
10:48 PM 52.0°F11.1°C 42.6°F5.9°C 70% 1.9 mph W3.1 kmh W 7.0 mph11.3 kmh 29.99 in1015.6 mb 0.00 in0.0 mm 0.00 in0.0 mm 0.00 in0.0 mm
10:53 PM 51.9°F11.1°C 42.5°F5.8°C 70% 2.0 mph W3.2 kmh W 7.0 mph11.3 kmh 29.99 in1015.6 mb 0.00 in0.0 mm 0.00 in0.0 mm 0.00 in0.0 mm
10:58 PM 51.8°F11.0°C 42.3°F5.7°C 70% 1.6 mph W2.6 kmh W 5.0 mph8.0 kmh 29.99 in1015.6 mb 0.00 in0.0 mm 0.00 in0.0 mm 0.00 in0.0 mm
11:03 PM 51.8°F11.0°C 42.8°F6.0°C 71% 1.8 mph W2.9 kmh W 5.0 mph8.0 kmh 29.99 in1015.6 mb 0.00 in0.0 mm 0.00 in0.0 mm 0.00 in0.0 mm
11:08 PM 51.7°F10.9°C 42.7°F5.9°C 71% 1.5 mph W2.4 kmh W 5.0 mph8.0 kmh 29.99 in1015.6 mb 0.00 in0.0 mm 0.00 in0.0 mm 0.00 in0.0 mm
11:13 PM 51.7°F10.9°C 42.7°F5.9°C 71% 1.9 mph W3.1 kmh W 5.0 mph8.0 kmh 29.99 in1015.6 mb 0.00 in0.0 mm 0.00 in0.0 mm 0.00 in0.0 mm
11:18 PM 51.5°F10.8°C 42.9°F6.1°C 72% 1.8 mph W2.9 kmh W 5.0 mph8.0 kmh 29.99 in1015.6 mb 0.00 in0.0 mm 0.00 in0.0 mm 0.00 in0.0 mm
11:23 PM 51.6°F10.9°C 43.0°F6.1°C 72% 2.7 mph W4.3 kmh W 5.0 mph8.0 kmh 29.99 in1015.6 mb 0.00 in0.0 mm 0.00 in0.0 mm 0.00 in0.0 mm
11:28 PM 51.4°F10.8°C 42.8°F6.0°C 72% 2.2 mph WSW3.5 kmh WSW 5.0 mph8.0 kmh 29.99 in1015.6 mb 0.00 in0.0 mm 0.00 in0.0 mm 0.00 in0.0 mm
11:33 PM 51.2°F10.7°C 42.9°F6.1°C 73% 1.9 mph W3.1 kmh W 5.0 mph8.0 kmh 29.99 in1015.6 mb 0.00 in0.0 mm 0.00 in0.0 mm 0.00 in0.0 mm
11:38 PM 51.1°F10.6°C 42.7°F5.9°C 73% 1.9 mph WSW3.1 kmh WSW 5.0 mph8.0 kmh 29.99 in1015.6 mb 0.00 in0.0 mm 0.00 in0.0 mm 0.00 in0.0 mm
11:43 PM 51.2°F10.7°C 42.9°F6.1°C 73% 2.0 mph WSW3.2 kmh WSW 5.0 mph8.0 kmh 29.99 in1015.6 mb 0.00 in0.0 mm 0.00 in0.0 mm 0.00 in0.0 mm
11:48 PM 51.0°F10.6°C 43.1°F6.2°C 74% 1.8 mph WSW2.9 kmh WSW 5.0 mph8.0 kmh 29.99 in1015.6 mb 0.00 in0.0 mm 0.00 in0.0 mm 0.00 in0.0 mm
11:53 PM 51.0°F10.6°C 43.1°F6.2°C 74% 1.7 mph W2.7 kmh W 5.0 mph8.0 kmh 29.99 in1015.6 mb 0.00 in0.0 mm 0.00 in0.0 mm 0.00 in0.0 mm
11:58 PM 51.0°F10.6°C 43.1°F6.2°C 74% 2.1 mph W3.4 kmh W 5.0 mph8.0 kmh 29.99 in1015.6 mb 0.00 in0.0 mm 0.00 in0.0 mm 0.00 in0.0 mm